ADDS METAR Data INFO
IDs: Format: Raw Decoded Include TAF

Data at: 2024 UTC 20 Jul 2018

KLNK 201954Z 00000KT 10SM CLR 27/18 A2996 RMK AO2 RAE02 SLP135 P0000 T02720178
KLNK 201854Z 03006KT 10SM -RA FEW095 FEW120 27/18 A2996 RMK AO2 RAB52 SLP135 P0000 T02670183
KLNK 201754Z 03005KT 10SM CLR 28/18 A2994 RMK AO2 SLP126 T02830178 10294 20200 58001
KLNK 201654Z 36004KT 10SM CLR 29/16 A2996 RMK AO2 SLP133 T02890161
KLNK 201554Z 04006KT 10SM CLR 27/17 A2992 RMK AO2 SLP120 T02720167
KLNK 201454Z 10SM CLR 25/17 A2994 RMK AO2 SLP126 T02500167 50010
KLNK 201354Z 35005KT 10SM CLR 23/16 A2995 RMK AO2 SLP129 T02330156
KLNK 201254Z 25004KT 10SM CLR 21/16 A2994 RMK AO2 SLP125 T02110161
KLNK 201154Z 00000KT 10SM CLR 19/16 A2991 RMK AO2 SLP115 T01940156 10222 20178 53003
KLNK 201054Z 00000KT 10SM CLR 18/16 A2989 RMK AO2 SLP112 T01780156
KLNK 200954Z AUTO 00000KT 10SM CLR 21/16 A2990 RMK AO2 SLP111 T02060156
KLNK 200854Z AUTO 01004KT 10SM CLR 19/16 A2990 RMK AO2 SLP111 T01890161 50001
KLNK 200754Z AUTO 01003KT 10SM CLR 20/18 A2990 RMK AO2 SLP112 T02000178
KLNK 200654Z AUTO 33004KT 10SM CLR 20/18 A2990 RMK AO2 SLP112 T02000183
KLNK 200554Z AUTO 35008KT 10SM CLR 22/20 A2989 RMK AO2 SLP110 T02170200 10317 20211 403220211 53012
KLNK 200454Z AUTO 36003KT 10SM CLR 25/21 A2987 RMK AO2 SLP100 T02500206
KLNK 200354Z AUTO 00000KT 10SM CLR 24/21 A2987 RMK AO2 SLP101 T02390206
KLNK 200254Z AUTO 27004KT 10SM CLR 27/21 A2986 RMK AO2 SLP096 T02720206 53013
KLNK 200154Z 27003KT 10SM CLR 29/20 A2984 RMK AO2 SLP090 T02890200
KLNK 200054Z 29006KT 10SM CLR 31/18 A2983 RMK AO2 SLP086 T03060183
KLNK 192354Z 28010KT 10SM CLR 32/18 A2982 RMK AO2 SLP083 T03170183 10322 20306 55007
KLNK 192254Z 27008KT 10SM CLR 32/18 A2981 RMK AO2 SLP082 T03220183
KLNK 192154Z 28007KT 10SM CLR 32/18 A2982 RMK AO2 SLP086 T03170178
KLNK 192054Z 28007G15KT 10SM CLR 32/18 A2984 RMK AO2 SLP090 T03170178 53001
KLNK 191954Z 32005KT 10SM CLR 31/18 A2984 RMK AO2 SLP091 T03110183
KLNK 191854Z 34012KT 10SM CLR 31/17 A2983 RMK AO2 SLP087 T03110172
KLNK 191754Z 31014KT 10SM CLR 31/17 A2984 RMK AO2 SLP089 T03060172 10311 20222 58001
KLNK 191654Z 32012G22KT 10SM CLR 31/19 A2986 RMK AO2 SLP096 T03060189
KLNK 191554Z 31012KT 10SM CLR 29/21 A2984 RMK AO2 SLP091 T02940211
KLNK 191454Z 30011G17KT 10SM CLR 28/22 A2984 RMK AO2 SLP091 T02780222 54000
KLNK 191354Z 24009KT 10SM CLR 26/22 A2983 RMK AO2 SLP090 T02560217
KLNK 191254Z 28003KT 10SM CLR 24/21 A2984 RMK AO2 SLP093 T02390206
KLNK 191154Z 18005KT 10SM FEW065 22/21 A2984 RMK AO2 SLP092 60021 70021 T02220206 10244 20211 58009
KLNK 191054Z AUTO 00000KT 10SM BKN038 22/20 A2985 RMK AO2 SLP095 T02170200
KLNK 190954Z AUTO 00000KT 10SM FEW080 22/20 A2986 RMK AO2 SLP100 T02220200
KLNK 190854Z AUTO 10SM FEW075 23/21 A2987 RMK AO2 LTG DSNT NE AND E RAE21 TSE10 SLP101 P0011 60021 T02280206 58003
KLNK 190840Z AUTO 10SM FEW015 FEW110 23/22 A2986 RMK AO2 LTG DSNT SE-SW RAE21 TSE10 P0011 T02330217